Flight Track Log - Related Links

Times and Time Zones

All times are in EDT time to prevent confusion due to time zone crossing. See the HYD331 flight status page for this flight to view local times or setup timezone preferences in your user account.

Time Position Orientation Groundspeed Altitude Reporting Facility
EDT Latitude Longitude Course Direction KTS MPH feet Rate Location/Type
Wed 04:10:49 PM 46.7500 -71.4333 226° Southwest 170 196 1,900  Level Montreal Center
Wed 04:11:49 PM 46.7167 -71.4833 226° Southwest 170 196 3,700 1,850 Climbing Montreal Center
Wed 04:12:49 PM 46.6833 -71.5167 214° Southwest 180 207 5,600 1,950 Climbing Montreal Center
Wed 04:13:49 PM 46.6667 -71.5667 244° Southwest 160 184 7,600 1,600 Climbing Montreal Center
Wed 04:14:49 PM 46.6333 -71.6167 226° Southwest 170 196 8,800 1,300 Climbing Montreal Center
Wed 04:15:00 PM 46.4835 -71.7832 215° Southwest  Level FlightAware Approximate
Wed 04:15:49 PM 46.5833 -71.6667 215° Southwest 170 196 10,200  Level Montreal Center
Wed 04:16:49 PM 46.5500 -71.7000 215° Southwest 170 196 11,600 1,350 Climbing Montreal Center
Wed 04:17:49 PM 46.5167 -71.7500 226° Southwest 170 196 12,900 1,100 Climbing Montreal Center
Wed 04:18:49 PM 46.4667 -71.8000 215° Southwest 180 207 13,800 550 Climbing Montreal Center
Wed 04:19:49 PM 46.4333 -71.8500 226° Southwest 200 230 14,000 100 Climbing Montreal Center
Wed 04:20:49 PM 46.3833 -71.9000 215° Southwest 220 253 14,000  Level Montreal Center
Wed 04:21:49 PM 46.3333 -71.9833 229° Southwest 230 265 14,000  Level Montreal Center
Wed 04:22:49 PM 46.3000 -72.0667 240° Southwest 240 276 14,000  Level Montreal Center
Wed 04:23:49 PM 46.2667 -72.1167 226° Southwest 230 265 14,000  Level Montreal Center
Wed 04:24:49 PM 46.2167 -72.1833 223° Southwest 230 265 14,000  Level Montreal Center
Wed 04:25:49 PM 46.1667 -72.2667 229° Southwest 230 265 14,000  Level Montreal Center
Wed 04:26:49 PM 46.1167 -72.3333 223° Southwest 230 265 14,000  Level Montreal Center
Wed 04:27:49 PM 46.0667 -72.3833 215° Southwest 230 265 14,000  Level Montreal Center
Wed 04:28:49 PM 46.0333 -72.4667 240° Southwest 230 265 14,000  Level Montreal Center
Wed 04:29:49 PM 45.9833 -72.5333 223° Southwest 230 265 14,000  Level Montreal Center
Wed 04:30:49 PM 45.9333 -72.6000 223° Southwest 230 265 14,000  Level Montreal Center
Wed 04:31:49 PM 45.9000 -72.6667 234° Southwest 230 265 14,000  Level Montreal Center
Wed 04:32:49 PM 45.8667 -72.7500 240° Southwest 230 265 14,000  Level Montreal Center
Wed 04:33:49 PM 45.8167 -72.8167 223° Southwest 230 265 14,000  Level Montreal Center
Wed 04:34:49 PM 45.7833 -72.8833 234° Southwest 230 265 14,000  Level Montreal Center
Wed 04:35:49 PM 45.7500 -72.9667 240° Southwest 230 265 14,000 -600 Level Montreal Center
Wed 04:36:49 PM 45.7167 -73.0333 234° Southwest 250 288 12,800 -1,350 Descending Montreal Center
Wed 04:37:49 PM 45.6833 -73.1333 245° Southwest 250 288 11,300 -1,300 Descending Montreal Center
Wed 04:38:49 PM 45.6500 -73.2167 240° Southwest 250 288 10,200 -1,000 Descending Montreal Center
Wed 04:39:49 PM 45.6167 -73.3167 245° Southwest 240 276 9,300 -650 Descending Montreal Center
Wed 04:40:49 PM 45.5833 -73.3833 234° Southwest 240 276 8,900 -250 Descending Montreal Center
Wed 04:41:49 PM 45.5333 -73.4500 223° Southwest 240 276 8,800 -300 Descending Montreal Center
Wed 04:42:49 PM 45.4833 -73.5333 229° Southwest 240 276 8,300 -500 Descending Montreal Center
Wed 04:43:49 PM 45.4333 -73.5833 215° Southwest 250 288 7,800 -800 Descending Montreal Center
Wed 04:44:49 PM 45.3833 -73.6500 223° Southwest 240 276 6,700 -1,300 Descending Montreal Center
Wed 04:45:49 PM 45.3333 -73.7333 230° Southwest 230 265 5,200 -1,700 Descending Montreal Center
Wed 04:46:49 PM 45.3167 -73.8167 254° West 230 265 3,300 -1,650 Descending Montreal Center
Wed 04:47:49 PM 45.3500 -73.8667 313° West 200 230 1,900 -900 Descending Montreal Center
Wed 04:48:49 PM 45.3833 -73.8167 46° Northeast 180 207 1,500 -550 Descending Montreal Center
Wed 04:49:49 PM 45.4167 -73.8000 19° North 140 161 800 -650 Descending Montreal Center
Wed 04:50:49 PM 45.4500 -73.7500 46° Northeast 120 138 200 -350 Descending Montreal Center
Wed 04:51:49 PM 45.4667 -73.7167 55° Northeast 70 81 100 -100 Descending Montreal Center

Login

Don't have an account? Register now (free) for customized features, flight alerts, and more!